sensor_id;sensor_type;location;lat;lon;timestamp;temperature;humidity
8261;DHT22;64115;50.170;8.242;2022-11-20T00:00:17;0.20;99.90
8261;DHT22;64115;50.170;8.242;2022-11-20T00:02:44;0.20;99.90
8261;DHT22;64115;50.170;8.242;2022-11-20T00:05:10;0.20;99.90
8261;DHT22;64115;50.170;8.242;2022-11-20T00:07:37;0.30;99.90
8261;DHT22;64115;50.170;8.242;2022-11-20T00:10:05;0.30;99.90
8261;DHT22;64115;50.170;8.242;2022-11-20T00:12:32;0.30;99.90
8261;DHT22;64115;50.170;8.242;2022-11-20T00:14:58;0.20;99.90
8261;DHT22;64115;50.170;8.242;2022-11-20T00:17:27;0.20;99.90
8261;DHT22;64115;50.170;8.242;2022-11-20T00:19:53;0.20;99.90
8261;DHT22;64115;50.170;8.242;2022-11-20T00:22:20;0.20;99.90
8261;DHT22;64115;50.170;8.242;2022-11-20T00:24:47;0.10;99.90
8261;DHT22;64115;50.170;8.242;2022-11-20T00:27:14;0.10;99.90
8261;DHT22;64115;50.170;8.242;2022-11-20T00:29:41;0.20;99.90
8261;DHT22;64115;50.170;8.242;2022-11-20T00:32:07;0.20;99.90
8261;DHT22;64115;50.170;8.242;2022-11-20T00:34:36;0.20;99.90
8261;DHT22;64115;50.170;8.242;2022-11-20T00:37:02;0.20;99.90
8261;DHT22;64115;50.170;8.242;2022-11-20T00:39:29;0.20;99.90
8261;DHT22;64115;50.170;8.242;2022-11-20T00:41:56;0.10;99.90
8261;DHT22;64115;50.170;8.242;2022-11-20T00:44:23;0.10;99.90
8261;DHT22;64115;50.170;8.242;2022-11-20T00:46:49;0.10;99.90
8261;DHT22;64115;50.170;8.242;2022-11-20T00:49:16;0.10;99.90
8261;DHT22;64115;50.170;8.242;2022-11-20T00:51:44;0.00;99.90
8261;DHT22;64115;50.170;8.242;2022-11-20T00:54:11;0.10;99.90
8261;DHT22;64115;50.170;8.242;2022-11-20T00:56:38;0.10;99.90
8261;DHT22;64115;50.170;8.242;2022-11-20T00:59:05;0.10;99.90
8261;DHT22;64115;50.170;8.242;2022-11-20T01:01:32;0.10;99.90
8261;DHT22;64115;50.170;8.242;2022-11-20T01:04:00;0.20;99.90
8261;DHT22;64115;50.170;8.242;2022-11-20T01:06:28;0.20;99.90
8261;DHT22;64115;50.170;8.242;2022-11-20T01:08:58;0.30;99.90
8261;DHT22;64115;50.170;8.242;2022-11-20T01:11:27;0.20;99.90
8261;DHT22;64115;50.170;8.242;2022-11-20T01:13:55;0.30;99.90
8261;DHT22;64115;50.170;8.242;2022-11-20T01:16:23;0.30;99.90
8261;DHT22;64115;50.170;8.242;2022-11-20T01:18:52;0.40;99.90
8261;DHT22;64115;50.170;8.242;2022-11-20T01:21:22;0.50;99.90
8261;DHT22;64115;50.170;8.242;2022-11-20T01:23:50;0.50;99.90
8261;DHT22;64115;50.170;8.242;2022-11-20T01:26:22;0.60;99.90
8261;DHT22;64115;50.170;8.242;2022-11-20T01:28:49;0.60;99.90
8261;DHT22;64115;50.170;8.242;2022-11-20T01:31:18;0.70;99.90
8261;DHT22;64115;50.170;8.242;2022-11-20T01:33:46;0.70;99.90
8261;DHT22;64115;50.170;8.242;2022-11-20T01:36:14;0.80;99.90
8261;DHT22;64115;50.170;8.242;2022-11-20T01:38:42;0.80;99.90
8261;DHT22;64115;50.170;8.242;2022-11-20T01:41:11;0.90;99.90
8261;DHT22;64115;50.170;8.242;2022-11-20T01:43:59;0.90;99.90
8261;DHT22;64115;50.170;8.242;2022-11-20T01:46:25;0.90;99.90
8261;DHT22;64115;50.170;8.242;2022-11-20T01:48:55;1.00;99.90
8261;DHT22;64115;50.170;8.242;2022-11-20T01:51:28;1.00;99.90
8261;DHT22;64115;50.170;8.242;2022-11-20T01:53:59;1.00;99.90
8261;DHT22;64115;50.170;8.242;2022-11-20T01:56:27;1.00;99.90
8261;DHT22;64115;50.170;8.242;2022-11-20T01:59:00;1.00;99.90
8261;DHT22;64115;50.170;8.242;2022-11-20T02:01:28;1.00;99.90
8261;DHT22;64115;50.170;8.242;2022-11-20T02:03:55;1.00;99.90
8261;DHT22;64115;50.170;8.242;2022-11-20T02:06:24;1.00;99.90
8261;DHT22;64115;50.170;8.242;2022-11-20T02:08:53;1.00;99.90
8261;DHT22;64115;50.170;8.242;2022-11-20T02:11:21;1.00;99.90
8261;DHT22;64115;50.170;8.242;2022-11-20T02:13:48;0.90;99.90
8261;DHT22;64115;50.170;8.242;2022-11-20T02:16:25;0.90;99.90
8261;DHT22;64115;50.170;8.242;2022-11-20T02:18:54;0.90;99.90
8261;DHT22;64115;50.170;8.242;2022-11-20T02:21:29;0.90;99.90
8261;DHT22;64115;50.170;8.242;2022-11-20T02:24:07;1.00;99.90
8261;DHT22;64115;50.170;8.242;2022-11-20T02:26:43;1.10;99.90
8261;DHT22;64115;50.170;8.242;2022-11-20T02:29:11;1.00;99.90
8261;DHT22;64115;50.170;8.242;2022-11-20T02:31:40;1.10;99.90
8261;DHT22;64115;50.170;8.242;2022-11-20T02:34:08;1.00;99.90
8261;DHT22;64115;50.170;8.242;2022-11-20T02:36:35;1.00;99.90
8261;DHT22;64115;50.170;8.242;2022-11-20T02:39:06;1.00;99.90
8261;DHT22;64115;50.170;8.242;2022-11-20T02:41:35;1.00;99.90
8261;DHT22;64115;50.170;8.242;2022-11-20T02:44:03;0.90;99.90
8261;DHT22;64115;50.170;8.242;2022-11-20T02:46:30;0.90;99.90
8261;DHT22;64115;50.170;8.242;2022-11-20T02:48:57;0.90;99.90
8261;DHT22;64115;50.170;8.242;2022-11-20T02:51:24;0.80;99.90
8261;DHT22;64115;50.170;8.242;2022-11-20T02:53:51;0.80;99.90
8261;DHT22;64115;50.170;8.242;2022-11-20T02:56:19;0.80;99.90
8261;DHT22;64115;50.170;8.242;2022-11-20T02:58:46;0.80;99.90
8261;DHT22;64115;50.170;8.242;2022-11-20T03:01:12;0.80;99.90
8261;DHT22;64115;50.170;8.242;2022-11-20T03:03:39;0.90;99.90
8261;DHT22;64115;50.170;8.242;2022-11-20T03:06:06;1.00;99.90
8261;DHT22;64115;50.170;8.242;2022-11-20T03:08:33;1.00;99.90
8261;DHT22;64115;50.170;8.242;2022-11-20T03:11:03;1.00;99.90
8261;DHT22;64115;50.170;8.242;2022-11-20T03:13:32;1.00;99.90
8261;DHT22;64115;50.170;8.242;2022-11-20T03:16:05;1.00;99.90
8261;DHT22;64115;50.170;8.242;2022-11-20T03:18:32;1.10;99.90
8261;DHT22;64115;50.170;8.242;2022-11-20T03:20:59;1.10;99.90
8261;DHT22;64115;50.170;8.242;2022-11-20T03:23:29;1.00;99.90
8261;DHT22;64115;50.170;8.242;2022-11-20T03:25:56;0.90;99.90
8261;DHT22;64115;50.170;8.242;2022-11-20T03:28:23;0.90;99.90
8261;DHT22;64115;50.170;8.242;2022-11-20T03:30:51;0.90;99.90
8261;DHT22;64115;50.170;8.242;2022-11-20T03:33:17;1.00;99.90
8261;DHT22;64115;50.170;8.242;2022-11-20T03:35:44;1.00;99.90
8261;DHT22;64115;50.170;8.242;2022-11-20T03:38:11;1.00;99.90
8261;DHT22;64115;50.170;8.242;2022-11-20T03:40:38;0.90;99.90
8261;DHT22;64115;50.170;8.242;2022-11-20T03:43:05;0.80;99.90
8261;DHT22;64115;50.170;8.242;2022-11-20T03:45:32;0.80;99.90
8261;DHT22;64115;50.170;8.242;2022-11-20T03:48:00;0.80;99.90
8261;DHT22;64115;50.170;8.242;2022-11-20T03:50:27;0.80;99.90
8261;DHT22;64115;50.170;8.242;2022-11-20T03:52:53;0.90;99.90
8261;DHT22;64115;50.170;8.242;2022-11-20T03:55:20;0.90;99.90
8261;DHT22;64115;50.170;8.242;2022-11-20T03:57:47;0.90;99.90
8261;DHT22;64115;50.170;8.242;2022-11-20T04:00:14;1.00;99.90
8261;DHT22;64115;50.170;8.242;2022-11-20T04:02:41;1.00;99.90
8261;DHT22;64115;50.170;8.242;2022-11-20T04:05:09;0.90;99.90
8261;DHT22;64115;50.170;8.242;2022-11-20T04:07:36;0.90;99.90
8261;DHT22;64115;50.170;8.242;2022-11-20T04:10:05;0.90;99.90
8261;DHT22;64115;50.170;8.242;2022-11-20T04:12:32;0.80;99.90
8261;DHT22;64115;50.170;8.242;2022-11-20T04:15:00;0.80;99.90
8261;DHT22;64115;50.170;8.242;2022-11-20T04:17:26;0.80;99.90
8261;DHT22;64115;50.170;8.242;2022-11-20T04:19:53;0.80;99.90
8261;DHT22;64115;50.170;8.242;2022-11-20T04:22:21;0.80;99.90
8261;DHT22;64115;50.170;8.242;2022-11-20T04:24:48;0.80;99.90
8261;DHT22;64115;50.170;8.242;2022-11-20T04:27:15;0.80;99.90
8261;DHT22;64115;50.170;8.242;2022-11-20T04:29:42;0.90;99.90
8261;DHT22;64115;50.170;8.242;2022-11-20T04:32:09;1.00;99.90
8261;DHT22;64115;50.170;8.242;2022-11-20T04:34:36;1.10;99.90
8261;DHT22;64115;50.170;8.242;2022-11-20T04:37:02;1.10;99.90
8261;DHT22;64115;50.170;8.242;2022-11-20T04:39:31;1.20;99.90
8261;DHT22;64115;50.170;8.242;2022-11-20T04:41:57;1.20;99.90
8261;DHT22;64115;50.170;8.242;2022-11-20T04:44:38;1.30;99.90
8261;DHT22;64115;50.170;8.242;2022-11-20T04:47:05;1.30;99.90
8261;DHT22;64115;50.170;8.242;2022-11-20T04:49:32;1.20;99.90
8261;DHT22;64115;50.170;8.242;2022-11-20T04:51:59;1.20;99.90
8261;DHT22;64115;50.170;8.242;2022-11-20T04:54:26;1.20;99.90
8261;DHT22;64115;50.170;8.242;2022-11-20T04:56:54;1.20;99.90
8261;DHT22;64115;50.170;8.242;2022-11-20T04:59:21;1.20;99.90
8261;DHT22;64115;50.170;8.242;2022-11-20T05:01:48;1.20;99.90
8261;DHT22;64115;50.170;8.242;2022-11-20T05:04:14;1.10;99.90
8261;DHT22;64115;50.170;8.242;2022-11-20T05:06:41;1.00;99.90
8261;DHT22;64115;50.170;8.242;2022-11-20T05:09:08;1.00;99.90
8261;DHT22;64115;50.170;8.242;2022-11-20T05:11:35;1.00;99.90
8261;DHT22;64115;50.170;8.242;2022-11-20T05:14:03;1.00;99.90
8261;DHT22;64115;50.170;8.242;2022-11-20T05:16:30;1.00;99.90
8261;DHT22;64115;50.170;8.242;2022-11-20T05:18:56;1.00;99.90
8261;DHT22;64115;50.170;8.242;2022-11-20T05:21:23;1.00;99.90
8261;DHT22;64115;50.170;8.242;2022-11-20T05:23:53;1.10;99.90
8261;DHT22;64115;50.170;8.242;2022-11-20T05:26:22;1.10;99.90
8261;DHT22;64115;50.170;8.242;2022-11-20T05:28:49;1.10;99.90
8261;DHT22;64115;50.170;8.242;2022-11-20T05:31:19;1.10;99.90
8261;DHT22;64115;50.170;8.242;2022-11-20T05:33:46;1.20;99.90
8261;DHT22;64115;50.170;8.242;2022-11-20T05:36:15;1.20;99.90
8261;DHT22;64115;50.170;8.242;2022-11-20T05:38:43;1.30;99.90
8261;DHT22;64115;50.170;8.242;2022-11-20T05:41:11;1.30;99.90
8261;DHT22;64115;50.170;8.242;2022-11-20T05:43:40;1.30;99.90
8261;DHT22;64115;50.170;8.242;2022-11-20T05:46:08;1.30;99.90
8261;DHT22;64115;50.170;8.242;2022-11-20T05:48:37;1.30;99.90
8261;DHT22;64115;50.170;8.242;2022-11-20T05:51:06;1.30;99.90
8261;DHT22;64115;50.170;8.242;2022-11-20T05:53:33;1.30;99.90
8261;DHT22;64115;50.170;8.242;2022-11-20T05:56:02;1.30;99.90
8261;DHT22;64115;50.170;8.242;2022-11-20T05:58:30;1.30;99.90
8261;DHT22;64115;50.170;8.242;2022-11-20T06:01:04;1.40;99.90
8261;DHT22;64115;50.170;8.242;2022-11-20T06:03:31;1.40;99.90
8261;DHT22;64115;50.170;8.242;2022-11-20T06:06:01;1.40;99.90
8261;DHT22;64115;50.170;8.242;2022-11-20T06:08:28;1.40;99.90
8261;DHT22;64115;50.170;8.242;2022-11-20T06:10:54;1.40;99.90
8261;DHT22;64115;50.170;8.242;2022-11-20T06:13:22;1.30;99.90
8261;DHT22;64115;50.170;8.242;2022-11-20T06:15:49;1.20;99.90
8261;DHT22;64115;50.170;8.242;2022-11-20T06:18:16;1.10;99.90
8261;DHT22;64115;50.170;8.242;2022-11-20T06:20:43;1.00;99.90
8261;DHT22;64115;50.170;8.242;2022-11-20T06:23:11;1.10;99.90
8261;DHT22;64115;50.170;8.242;2022-11-20T06:25:39;1.20;99.90
8261;DHT22;64115;50.170;8.242;2022-11-20T06:28:06;1.30;99.90
8261;DHT22;64115;50.170;8.242;2022-11-20T06:30:34;1.30;99.90
8261;DHT22;64115;50.170;8.242;2022-11-20T06:33:01;1.30;99.90
8261;DHT22;64115;50.170;8.242;2022-11-20T06:35:28;1.40;99.90
8261;DHT22;64115;50.170;8.242;2022-11-20T06:37:55;1.40;99.90
8261;DHT22;64115;50.170;8.242;2022-11-20T06:40:24;1.40;99.90
8261;DHT22;64115;50.170;8.242;2022-11-20T06:42:52;1.40;99.90
8261;DHT22;64115;50.170;8.242;2022-11-20T06:45:19;1.40;99.90
8261;DHT22;64115;50.170;8.242;2022-11-20T06:47:46;1.30;99.90
8261;DHT22;64115;50.170;8.242;2022-11-20T06:50:13;1.30;99.90
8261;DHT22;64115;50.170;8.242;2022-11-20T06:52:40;1.30;99.90
8261;DHT22;64115;50.170;8.242;2022-11-20T06:55:07;1.40;99.90
8261;DHT22;64115;50.170;8.242;2022-11-20T06:57:35;1.40;99.90
8261;DHT22;64115;50.170;8.242;2022-11-20T07:00:03;1.40;99.90
8261;DHT22;64115;50.170;8.242;2022-11-20T07:02:30;1.30;99.90
8261;DHT22;64115;50.170;8.242;2022-11-20T07:04:56;1.30;99.90
8261;DHT22;64115;50.170;8.242;2022-11-20T07:07:23;1.30;99.90
8261;DHT22;64115;50.170;8.242;2022-11-20T07:09:50;1.20;99.90
8261;DHT22;64115;50.170;8.242;2022-11-20T07:12:17;1.20;99.90
8261;DHT22;64115;50.170;8.242;2022-11-20T07:14:45;1.30;99.90
8261;DHT22;64115;50.170;8.242;2022-11-20T07:17:12;1.30;99.90
8261;DHT22;64115;50.170;8.242;2022-11-20T07:19:39;1.30;99.90
8261;DHT22;64115;50.170;8.242;2022-11-20T07:22:06;1.30;99.90
8261;DHT22;64115;50.170;8.242;2022-11-20T07:24:32;1.30;99.90
8261;DHT22;64115;50.170;8.242;2022-11-20T07:27:00;1.30;99.90
8261;DHT22;64115;50.170;8.242;2022-11-20T07:29:27;1.30;99.90
8261;DHT22;64115;50.170;8.242;2022-11-20T07:31:55;1.30;99.90
8261;DHT22;64115;50.170;8.242;2022-11-20T07:34:22;1.30;99.90
8261;DHT22;64115;50.170;8.242;2022-11-20T07:36:49;1.30;99.90
8261;DHT22;64115;50.170;8.242;2022-11-20T07:39:15;1.30;99.90
8261;DHT22;64115;50.170;8.242;2022-11-20T07:41:42;1.40;99.90
8261;DHT22;64115;50.170;8.242;2022-11-20T07:44:09;1.40;99.90
8261;DHT22;64115;50.170;8.242;2022-11-20T07:46:36;1.50;99.90
8261;DHT22;64115;50.170;8.242;2022-11-20T07:49:04;1.50;99.90
8261;DHT22;64115;50.170;8.242;2022-11-20T07:51:31;1.50;99.90
8261;DHT22;64115;50.170;8.242;2022-11-20T07:53:57;1.50;99.90
8261;DHT22;64115;50.170;8.242;2022-11-20T07:56:24;1.60;99.90
8261;DHT22;64115;50.170;8.242;2022-11-20T07:58:51;1.60;99.90
8261;DHT22;64115;50.170;8.242;2022-11-20T08:01:18;1.50;99.90
8261;DHT22;64115;50.170;8.242;2022-11-20T08:03:45;1.50;99.90
8261;DHT22;64115;50.170;8.242;2022-11-20T08:06:13;1.60;99.90
8261;DHT22;64115;50.170;8.242;2022-11-20T08:08:41;1.60;99.90
8261;DHT22;64115;50.170;8.242;2022-11-20T08:11:08;1.60;99.90
8261;DHT22;64115;50.170;8.242;2022-11-20T08:13:52;1.70;99.90
8261;DHT22;64115;50.170;8.242;2022-11-20T08:16:36;1.70;99.90
8261;DHT22;64115;50.170;8.242;2022-11-20T08:19:03;1.80;99.90
8261;DHT22;64115;50.170;8.242;2022-11-20T08:21:32;1.90;99.90
8261;DHT22;64115;50.170;8.242;2022-11-20T08:23:59;1.90;99.90
8261;DHT22;64115;50.170;8.242;2022-11-20T08:26:26;1.90;99.90
8261;DHT22;64115;50.170;8.242;2022-11-20T08:28:53;1.90;99.90
8261;DHT22;64115;50.170;8.242;2022-11-20T08:31:21;1.90;99.90
8261;DHT22;64115;50.170;8.242;2022-11-20T08:33:48;2.00;99.90
8261;DHT22;64115;50.170;8.242;2022-11-20T08:36:15;1.90;99.90
8261;DHT22;64115;50.170;8.242;2022-11-20T08:38:47;2.00;99.90
8261;DHT22;64115;50.170;8.242;2022-11-20T08:41:13;1.90;99.90
8261;DHT22;64115;50.170;8.242;2022-11-20T08:43:55;2.00;99.90
8261;DHT22;64115;50.170;8.242;2022-11-20T08:46:23;2.00;99.90
8261;DHT22;64115;50.170;8.242;2022-11-20T08:48:50;2.10;99.90
8261;DHT22;64115;50.170;8.242;2022-11-20T08:51:18;2.20;99.90
8261;DHT22;64115;50.170;8.242;2022-11-20T08:53:46;2.20;99.90
8261;DHT22;64115;50.170;8.242;2022-11-20T08:56:15;2.20;99.90
8261;DHT22;64115;50.170;8.242;2022-11-20T08:58:41;2.20;99.90
8261;DHT22;64115;50.170;8.242;2022-11-20T09:01:08;2.30;99.90
8261;DHT22;64115;50.170;8.242;2022-11-20T09:03:35;2.30;99.90
8261;DHT22;64115;50.170;8.242;2022-11-20T09:06:05;2.40;99.90
8261;DHT22;64115;50.170;8.242;2022-11-20T09:08:32;2.40;99.90
8261;DHT22;64115;50.170;8.242;2022-11-20T09:11:00;2.50;99.90
8261;DHT22;64115;50.170;8.242;2022-11-20T09:13:29;2.60;99.90
8261;DHT22;64115;50.170;8.242;2022-11-20T09:15:57;2.60;99.90
8261;DHT22;64115;50.170;8.242;2022-11-20T09:18:25;2.60;99.90
8261;DHT22;64115;50.170;8.242;2022-11-20T09:20:56;2.60;99.90
8261;DHT22;64115;50.170;8.242;2022-11-20T09:23:23;2.60;99.90
8261;DHT22;64115;50.170;8.242;2022-11-20T09:25:50;2.70;99.90
8261;DHT22;64115;50.170;8.242;2022-11-20T09:28:19;2.80;99.90
8261;DHT22;64115;50.170;8.242;2022-11-20T09:30:46;2.90;99.90
8261;DHT22;64115;50.170;8.242;2022-11-20T09:33:12;2.90;99.90
8261;DHT22;64115;50.170;8.242;2022-11-20T09:35:39;3.00;99.90
8261;DHT22;64115;50.170;8.242;2022-11-20T09:38:07;3.10;99.90
8261;DHT22;64115;50.170;8.242;2022-11-20T09:40:35;3.20;99.90
8261;DHT22;64115;50.170;8.242;2022-11-20T09:43:10;3.30;99.90
8261;DHT22;64115;50.170;8.242;2022-11-20T09:45:50;3.20;99.90
8261;DHT22;64115;50.170;8.242;2022-11-20T09:48:32;3.10;99.90
8261;DHT22;64115;50.170;8.242;2022-11-20T09:51:07;3.10;99.90
8261;DHT22;64115;50.170;8.242;2022-11-20T09:53:46;3.20;99.90
8261;DHT22;64115;50.170;8.242;2022-11-20T09:56:20;3.20;99.90
8261;DHT22;64115;50.170;8.242;2022-11-20T09:58:50;3.30;99.90
8261;DHT22;64115;50.170;8.242;2022-11-20T10:01:20;3.30;99.90
8261;DHT22;64115;50.170;8.242;2022-11-20T10:03:55;3.50;99.90
8261;DHT22;64115;50.170;8.242;2022-11-20T10:06:28;3.50;99.90
8261;DHT22;64115;50.170;8.242;2022-11-20T10:09:01;3.60;99.90
8261;DHT22;64115;50.170;8.242;2022-11-20T10:11:36;3.50;99.90
8261;DHT22;64115;50.170;8.242;2022-11-20T10:14:16;3.50;99.90
8261;DHT22;64115;50.170;8.242;2022-11-20T10:16:52;3.40;99.90
8261;DHT22;64115;50.170;8.242;2022-11-20T10:19:37;3.40;99.90
8261;DHT22;64115;50.170;8.242;2022-11-20T10:22:15;3.30;99.90
8261;DHT22;64115;50.170;8.242;2022-11-20T10:24:53;3.30;99.90
8261;DHT22;64115;50.170;8.242;2022-11-20T10:27:48;3.30;99.90
8261;DHT22;64115;50.170;8.242;2022-11-20T10:30:19;3.30;99.90
8261;DHT22;64115;50.170;8.242;2022-11-20T10:32:52;3.20;99.90
8261;DHT22;64115;50.170;8.242;2022-11-20T10:35:24;3.20;99.90
8261;DHT22;64115;50.170;8.242;2022-11-20T10:37:56;3.20;99.90
8261;DHT22;64115;50.170;8.242;2022-11-20T10:40:29;3.20;99.90
8261;DHT22;64115;50.170;8.242;2022-11-20T10:43:01;3.20;99.90
8261;DHT22;64115;50.170;8.242;2022-11-20T11:09:29;3.60;99.90
8261;DHT22;64115;50.170;8.242;2022-11-20T11:11:59;3.50;99.90
8261;DHT22;64115;50.170;8.242;2022-11-20T11:14:26;3.50;99.90
8261;DHT22;64115;50.170;8.242;2022-11-20T11:16:54;3.50;99.90
8261;DHT22;64115;50.170;8.242;2022-11-20T11:19:21;3.50;99.90
8261;DHT22;64115;50.170;8.242;2022-11-20T11:21:52;3.60;99.90
8261;DHT22;64115;50.170;8.242;2022-11-20T11:24:26;3.70;99.90
8261;DHT22;64115;50.170;8.242;2022-11-20T11:26:57;3.80;99.90
8261;DHT22;64115;50.170;8.242;2022-11-20T11:29:24;3.70;99.90
8261;DHT22;64115;50.170;8.242;2022-11-20T11:32:03;3.80;99.90
8261;DHT22;64115;50.170;8.242;2022-11-20T11:34:30;3.90;99.90
8261;DHT22;64115;50.170;8.242;2022-11-20T11:36:58;4.00;99.90
8261;DHT22;64115;50.170;8.242;2022-11-20T11:39:28;4.20;99.90
8261;DHT22;64115;50.170;8.242;2022-11-20T11:41:55;4.40;99.90
8261;DHT22;64115;50.170;8.242;2022-11-20T11:44:26;4.50;99.90
8261;DHT22;64115;50.170;8.242;2022-11-20T11:47:21;4.60;99.90
8261;DHT22;64115;50.170;8.242;2022-11-20T11:49:48;4.80;99.90
8261;DHT22;64115;50.170;8.242;2022-11-20T11:52:17;4.90;99.90
8261;DHT22;64115;50.170;8.242;2022-11-20T11:54:50;4.90;99.90
8261;DHT22;64115;50.170;8.242;2022-11-20T11:57:23;5.00;99.90
8261;DHT22;64115;50.170;8.242;2022-11-20T12:00:00;5.20;99.90
8261;DHT22;64115;50.170;8.242;2022-11-20T12:02:34;5.20;99.90
8261;DHT22;64115;50.170;8.242;2022-11-20T12:05:09;5.10;99.90
8261;DHT22;64115;50.170;8.242;2022-11-20T12:07:42;4.90;99.90
8261;DHT22;64115;50.170;8.242;2022-11-20T12:10:20;4.80;99.90
8261;DHT22;64115;50.170;8.242;2022-11-20T12:12:51;4.70;99.90
8261;DHT22;64115;50.170;8.242;2022-11-20T12:15:30;4.70;99.90
8261;DHT22;64115;50.170;8.242;2022-11-20T12:17:57;4.60;99.90
8261;DHT22;64115;50.170;8.242;2022-11-20T12:20:28;4.70;99.90
8261;DHT22;64115;50.170;8.242;2022-11-20T12:23:01;4.70;99.90
8261;DHT22;64115;50.170;8.242;2022-11-20T12:25:35;4.70;99.90
8261;DHT22;64115;50.170;8.242;2022-11-20T12:28:18;4.70;99.90
8261;DHT22;64115;50.170;8.242;2022-11-20T12:30:58;4.70;99.90
8261;DHT22;64115;50.170;8.242;2022-11-20T12:33:35;4.60;99.90
8261;DHT22;64115;50.170;8.242;2022-11-20T12:36:16;4.60;99.90
8261;DHT22;64115;50.170;8.242;2022-11-20T12:39:03;4.60;99.90
8261;DHT22;64115;50.170;8.242;2022-11-20T12:41:55;4.50;99.90
8261;DHT22;64115;50.170;8.242;2022-11-20T12:45:01;4.60;99.90
8261;DHT22;64115;50.170;8.242;2022-11-20T12:47:51;4.60;99.90
8261;DHT22;64115;50.170;8.242;2022-11-20T12:50:28;4.60;99.90
8261;DHT22;64115;50.170;8.242;2022-11-20T12:52:57;4.70;99.90
8261;DHT22;64115;50.170;8.242;2022-11-20T12:55:42;4.80;99.90
8261;DHT22;64115;50.170;8.242;2022-11-20T12:58:20;4.90;99.90
8261;DHT22;64115;50.170;8.242;2022-11-20T13:00:53;4.90;99.90
8261;DHT22;64115;50.170;8.242;2022-11-20T13:03:42;5.10;99.90
8261;DHT22;64115;50.170;8.242;2022-11-20T13:06:13;5.20;99.90
8261;DHT22;64115;50.170;8.242;2022-11-20T13:08:45;5.40;99.90
8261;DHT22;64115;50.170;8.242;2022-11-20T13:11:18;5.50;99.90
8261;DHT22;64115;50.170;8.242;2022-11-20T13:16:51;5.50;99.90
8261;DHT22;64115;50.170;8.242;2022-11-20T13:19:19;5.50;99.90
8261;DHT22;64115;50.170;8.242;2022-11-20T13:21:47;5.50;99.90
8261;DHT22;64115;50.170;8.242;2022-11-20T13:24:26;5.60;99.90
8261;DHT22;64115;50.170;8.242;2022-11-20T13:27:16;5.60;99.90
8261;DHT22;64115;50.170;8.242;2022-11-20T13:29:47;5.70;99.90
8261;DHT22;64115;50.170;8.242;2022-11-20T13:32:27;5.70;99.90
8261;DHT22;64115;50.170;8.242;2022-11-20T13:34:59;5.80;99.90
8261;DHT22;64115;50.170;8.242;2022-11-20T13:37:31;5.80;99.90
8261;DHT22;64115;50.170;8.242;2022-11-20T13:40:11;5.70;99.90
8261;DHT22;64115;50.170;8.242;2022-11-20T13:42:40;5.70;99.90
8261;DHT22;64115;50.170;8.242;2022-11-20T13:45:11;5.70;99.90
8261;DHT22;64115;50.170;8.242;2022-11-20T13:47:51;5.70;99.90
8261;DHT22;64115;50.170;8.242;2022-11-20T13:50:18;5.70;99.90
8261;DHT22;64115;50.170;8.242;2022-11-20T13:52:50;5.70;99.90
8261;DHT22;64115;50.170;8.242;2022-11-20T13:55:26;5.60;99.90
8261;DHT22;64115;50.170;8.242;2022-11-20T13:58:19;5.50;99.90
8261;DHT22;64115;50.170;8.242;2022-11-20T14:00:57;5.40;99.90
8261;DHT22;64115;50.170;8.242;2022-11-20T14:03:29;5.30;99.90
8261;DHT22;64115;50.170;8.242;2022-11-20T14:06:00;5.20;99.90
8261;DHT22;64115;50.170;8.242;2022-11-20T14:08:39;5.10;99.90
8261;DHT22;64115;50.170;8.242;2022-11-20T14:11:16;5.00;99.90
8261;DHT22;64115;50.170;8.242;2022-11-20T14:13:55;4.90;99.90
8261;DHT22;64115;50.170;8.242;2022-11-20T14:16:23;4.90;99.90
8261;DHT22;64115;50.170;8.242;2022-11-20T14:18:52;4.90;99.90
8261;DHT22;64115;50.170;8.242;2022-11-20T14:21:23;4.90;99.90
8261;DHT22;64115;50.170;8.242;2022-11-20T14:23:53;5.00;99.90
8261;DHT22;64115;50.170;8.242;2022-11-20T14:26:20;4.90;99.90
8261;DHT22;64115;50.170;8.242;2022-11-20T14:28:49;4.90;99.90
8261;DHT22;64115;50.170;8.242;2022-11-20T14:31:22;4.90;99.90
8261;DHT22;64115;50.170;8.242;2022-11-20T14:33:53;4.80;99.90
8261;DHT22;64115;50.170;8.242;2022-11-20T14:36:22;4.90;99.90
8261;DHT22;64115;50.170;8.242;2022-11-20T14:38:50;4.80;99.90
8261;DHT22;64115;50.170;8.242;2022-11-20T14:41:18;4.70;99.90
8261;DHT22;64115;50.170;8.242;2022-11-20T14:43:47;4.60;99.90
8261;DHT22;64115;50.170;8.242;2022-11-20T14:46:16;4.60;99.90
8261;DHT22;64115;50.170;8.242;2022-11-20T14:48:46;4.60;99.90
8261;DHT22;64115;50.170;8.242;2022-11-20T14:51:28;4.50;99.90
8261;DHT22;64115;50.170;8.242;2022-11-20T14:53:56;4.50;99.90
8261;DHT22;64115;50.170;8.242;2022-11-20T14:56:23;4.50;99.90
8261;DHT22;64115;50.170;8.242;2022-11-20T14:58:57;4.50;99.90
8261;DHT22;64115;50.170;8.242;2022-11-20T15:01:27;4.50;99.90
8261;DHT22;64115;50.170;8.242;2022-11-20T15:04:00;4.40;99.90
8261;DHT22;64115;50.170;8.242;2022-11-20T15:06:29;4.30;99.90
8261;DHT22;64115;50.170;8.242;2022-11-20T15:08:57;4.30;99.90
8261;DHT22;64115;50.170;8.242;2022-11-20T15:11:28;4.30;99.90
8261;DHT22;64115;50.170;8.242;2022-11-20T15:13:57;4.30;99.90
8261;DHT22;64115;50.170;8.242;2022-11-20T15:16:24;4.30;99.90
8261;DHT22;64115;50.170;8.242;2022-11-20T15:18:53;4.20;99.90
8261;DHT22;64115;50.170;8.242;2022-11-20T15:21:20;4.20;99.90
8261;DHT22;64115;50.170;8.242;2022-11-20T15:23:49;4.20;99.90
8261;DHT22;64115;50.170;8.242;2022-11-20T15:26:22;4.20;99.90
8261;DHT22;64115;50.170;8.242;2022-11-20T15:28:50;4.20;99.90
8261;DHT22;64115;50.170;8.242;2022-11-20T15:31:19;4.20;99.90
8261;DHT22;64115;50.170;8.242;2022-11-20T15:33:47;4.20;99.90
8261;DHT22;64115;50.170;8.242;2022-11-20T15:36:14;4.20;99.90
8261;DHT22;64115;50.170;8.242;2022-11-20T15:38:41;4.10;99.90
8261;DHT22;64115;50.170;8.242;2022-11-20T15:41:10;4.10;99.90
8261;DHT22;64115;50.170;8.242;2022-11-20T15:43:37;4.10;99.90
8261;DHT22;64115;50.170;8.242;2022-11-20T15:46:06;4.00;99.90
8261;DHT22;64115;50.170;8.242;2022-11-20T15:48:37;4.00;99.90
8261;DHT22;64115;50.170;8.242;2022-11-20T15:51:12;4.10;99.90
8261;DHT22;64115;50.170;8.242;2022-11-20T15:53:42;4.00;99.90
8261;DHT22;64115;50.170;8.242;2022-11-20T15:56:12;4.00;99.90
8261;DHT22;64115;50.170;8.242;2022-11-20T15:58:39;4.00;99.90
8261;DHT22;64115;50.170;8.242;2022-11-20T16:01:10;4.00;99.90
8261;DHT22;64115;50.170;8.242;2022-11-20T16:03:37;4.00;99.90
8261;DHT22;64115;50.170;8.242;2022-11-20T16:06:04;4.00;99.90
8261;DHT22;64115;50.170;8.242;2022-11-20T16:08:31;4.00;99.90
8261;DHT22;64115;50.170;8.242;2022-11-20T16:10:57;4.00;99.90
8261;DHT22;64115;50.170;8.242;2022-11-20T16:13:26;4.00;99.90
8261;DHT22;64115;50.170;8.242;2022-11-20T16:16:19;4.00;99.90
8261;DHT22;64115;50.170;8.242;2022-11-20T16:18:46;4.00;99.90
8261;DHT22;64115;50.170;8.242;2022-11-20T16:21:13;4.00;99.90
8261;DHT22;64115;50.170;8.242;2022-11-20T16:23:40;4.10;99.90
8261;DHT22;64115;50.170;8.242;2022-11-20T16:26:11;4.10;99.90
8261;DHT22;64115;50.170;8.242;2022-11-20T16:28:39;4.10;99.90
8261;DHT22;64115;50.170;8.242;2022-11-20T16:31:11;4.10;99.90
8261;DHT22;64115;50.170;8.242;2022-11-20T16:33:38;4.20;99.90
8261;DHT22;64115;50.170;8.242;2022-11-20T16:36:09;4.10;99.90
8261;DHT22;64115;50.170;8.242;2022-11-20T16:38:36;4.10;99.90
8261;DHT22;64115;50.170;8.242;2022-11-20T16:41:03;4.10;99.90
8261;DHT22;64115;50.170;8.242;2022-11-20T16:43:30;4.00;99.90
8261;DHT22;64115;50.170;8.242;2022-11-20T16:46:05;4.10;99.90